Time;durP1;ratioP1;P1;durP2;ratioP2;P2;SDS_P1;SDS_P2;PMS_P1;PMS_P2;Temp;Humidity;BMP_temperature;BMP_pressure;BME280_temperature;BME280_humidity;BME280_pressure;Samples;Min_cycle;Max_cycle;Signal;HPM_P1;HPM_P2
2021/08/23 00:00:39;;;;;;;8.55;5.05;;;15.60;85.50;;;;;;5012332;28;20014;-82
2021/08/23 00:03:05;;;;;;;8.35;5.00;;;15.60;85.20;;;;;;5012320;28;20049;-83
2021/08/23 00:05:32;;;;;;;6.28;4.35;;;15.60;85.50;;;;;;5016544;28;20088;-84
2021/08/23 00:07:59;;;;;;;8.02;4.88;;;15.70;85.40;;;;;;5016646;28;20022;-84
2021/08/23 00:10:25;;;;;;;6.22;5.50;;;15.70;86.10;;;;;;5016495;28;20048;-82
2021/08/23 00:12:51;;;;;;;6.88;4.72;;;15.70;85.20;;;;;;5015102;28;20518;-83
2021/08/23 00:15:16;;;;;;;9.15;4.60;;;15.70;84.90;;;;;;5016405;28;20053;-83
2021/08/23 00:17:43;;;;;;;9.98;4.72;;;15.70;84.70;;;;;;5014822;28;20030;-83
2021/08/23 00:20:16;;;;;;;7.50;5.00;;;15.70;84.40;;;;;;5016155;28;20022;-83
2021/08/23 00:22:50;;;;;;;11.88;5.00;;;15.70;84.40;;;;;;5016154;28;20022;-81
2021/08/23 00:25:20;;;;;;;8.80;4.43;;;15.70;84.40;;;;;;5016229;28;20029;-83
2021/08/23 00:27:47;;;;;;;8.55;4.55;;;15.70;84.30;;;;;;5015950;28;20430;-82
2021/08/23 00:30:15;;;;;;;7.88;4.80;;;15.70;84.80;;;;;;5016966;28;20105;-83
2021/08/23 00:32:42;;;;;;;7.35;4.53;;;15.70;85.10;;;;;;5015824;28;20044;-82
2021/08/23 00:35:09;;;;;;;7.40;4.57;;;15.70;84.80;;;;;;5015802;28;20053;-83
2021/08/23 00:37:35;;;;;;;6.88;4.72;;;15.80;84.90;;;;;;5015819;28;20034;-82
2021/08/23 00:40:02;;;;;;;11.00;5.72;;;15.80;84.90;;;;;;5015851;28;20029;-84
2021/08/23 00:42:28;;;;;;;8.93;5.17;;;15.70;84.50;;;;;;5014166;28;20407;-83
2021/08/23 00:44:54;;;;;;;8.70;5.28;;;15.70;84.40;;;;;;5015429;28;20072;-83
2021/08/23 00:47:20;;;;;;;7.47;4.78;;;15.60;84.40;;;;;;5015679;28;20124;-82
2021/08/23 00:49:45;;;;;;;10.25;4.90;;;15.60;84.30;;;;;;5000581;28;20123;-83
2021/08/23 00:52:11;;;;;;;9.07;4.70;;;15.60;84.50;;;;;;5015988;28;20036;-82
2021/08/23 00:54:37;;;;;;;7.05;4.57;;;15.60;84.50;;;;;;5015500;28;20026;-83
2021/08/23 00:57:04;;;;;;;10.30;4.85;;;15.50;84.80;;;;;;5015640;28;20034;-83
2021/08/23 00:59:33;;;;;;;7.93;5.20;;;15.50;84.90;;;;;;5014229;28;20506;-82
2021/08/23 01:02:12;;;;;;;10.93;5.18;;;15.50;84.80;;;;;;5016028;28;20380;-82
2021/08/23 01:05:05;;;;;;;6.85;4.45;;;15.50;84.90;;;;;;5019310;28;20094;-82
2021/08/23 01:07:51;;;;;;;11.48;4.43;;;15.50;84.80;;;;;;5010709;28;20422;-81
2021/08/23 01:10:25;;;;;;;9.45;5.70;;;15.50;84.70;;;;;;5016516;28;20364;-81
2021/08/23 01:12:53;;;;;;;6.10;4.57;;;15.40;85.20;;;;;;5016389;28;20482;-80
2021/08/23 01:15:18;;;;;;;;;;;15.40;85.30;;;;;;5014854;28;20479;-82
2021/08/23 01:17:44;;;;;;;6.78;4.75;;;15.40;84.80;;;;;;5014360;28;19983;-82
2021/08/23 01:20:10;;;;;;;6.53;4.60;;;15.30;85.50;;;;;;5015125;28;20018;-83
2021/08/23 01:22:44;;;;;;;8.65;4.95;;;15.40;85.60;;;;;;5015261;28;20053;-82
2021/08/23 01:25:13;;;;;;;9.93;4.88;;;15.30;85.90;;;;;;5014043;28;20486;-83
2021/08/23 01:27:47;;;;;;;6.88;5.00;;;15.30;85.80;;;;;;5001403;28;20029;-82
2021/08/23 01:30:15;;;;;;;7.75;4.75;;;15.30;85.90;;;;;;5015108;28;20014;-82
2021/08/23 01:32:41;;;;;;;7.57;4.82;;;15.30;85.90;;;;;;5013598;28;20029;-83
2021/08/23 01:35:08;;;;;;;7.03;4.65;;;15.20;86.20;;;;;;5014654;28;20029;-82
2021/08/23 01:37:37;;;;;;;7.80;5.47;;;15.20;86.40;;;;;;5015014;28;20034;-82
2021/08/23 01:40:07;;;;;;;9.98;4.90;;;15.20;86.60;;;;;;5001387;28;20018;-83
2021/08/23 01:42:33;;;;;;;5.82;4.78;;;15.10;86.50;;;;;;5017253;28;20056;-80
2021/08/23 01:44:59;;;;;;;5.45;4.38;;;15.10;86.40;;;;;;5017864;28;20022;-82
2021/08/23 01:47:25;;;;;;;7.97;4.60;;;15.00;86.60;;;;;;5015398;28;20021;-81
2021/08/23 01:49:51;;;;;;;7.15;4.85;;;15.00;86.80;;;;;;5022192;28;21820;-81
2021/08/23 01:52:17;;;;;;;10.68;4.90;;;14.90;86.90;;;;;;5028368;28;20025;-81
2021/08/23 01:54:43;;;;;;;6.32;4.50;;;14.80;87.10;;;;;;5024085;28;20032;-81
2021/08/23 01:57:20;;;;;;;7.47;5.45;;;14.80;87.30;;;;;;5015082;28;20040;-82
2021/08/23 01:59:46;;;;;;;6.22;4.25;;;14.70;86.50;;;;;;5014291;28;20507;-81
2021/08/23 02:02:12;;;;;;;7.17;5.23;;;14.70;87.90;;;;;;5007039;28;20491;-82
2021/08/23 02:04:38;;;;;;;10.73;4.63;;;14.70;88.10;;;;;;5007284;28;20263;-82
2021/08/23 02:07:04;;;;;;;8.40;4.28;;;14.60;88.10;;;;;;5012973;28;20084;-82
2021/08/23 02:09:29;;;;;;;6.63;4.68;;;14.60;88.30;;;;;;5014354;28;20033;-83
2021/08/23 02:11:55;;;;;;;5.97;4.72;;;14.60;88.50;;;;;;5013791;28;20036;-83
2021/08/23 02:14:21;;;;;;;7.38;4.32;;;14.50;88.70;;;;;;5014128;28;20021;-82
2021/08/23 02:16:47;;;;;;;9.85;4.50;;;14.50;88.90;;;;;;5013849;28;20034;-82
2021/08/23 02:19:13;;;;;;;8.35;5.03;;;14.50;89.00;;;;;;5012946;28;20105;-82
2021/08/23 02:21:52;;;;;;;8.07;4.63;;;14.40;89.60;;;;;;5014005;28;20026;-82
2021/08/23 02:24:20;;;;;;;6.30;4.55;;;14.40;89.10;;;;;;5000683;28;20052;-83
2021/08/23 02:26:46;;;;;;;7.43;4.22;;;14.40;89.30;;;;;;5012230;28;20040;-83
2021/08/23 02:29:12;;;;;;;12.23;4.93;;;14.40;89.40;;;;;;5013921;28;20053;-81
2021/08/23 02:31:39;;;;;;;7.95;4.95;;;14.40;89.40;;;;;;5012854;28;20117;-82
2021/08/23 02:34:04;;;;;;;8.35;4.75;;;14.40;89.40;;;;;;5012321;28;20041;-84
2021/08/23 02:36:30;;;;;;;9.20;4.60;;;14.40;89.50;;;;;;5013539;28;20034;-84
2021/08/23 02:38:57;;;;;;;9.90;4.82;;;14.40;89.50;;;;;;5013974;28;20042;-82
2021/08/23 02:41:23;;;;;;;7.80;5.20;;;14.30;89.60;;;;;;5013267;28;20053;-82
2021/08/23 02:43:49;;;;;;;8.10;5.05;;;14.30;89.70;;;;;;5013416;28;20263;-83
2021/08/23 02:46:18;;;;;;;5.47;4.13;;;14.30;89.70;;;;;;5013747;28;20018;-84
2021/08/23 02:48:45;;;;;;;7.28;5.32;;;14.30;89.80;;;;;;5014173;28;20479;-81
2021/08/23 02:51:12;;;;;;;6.45;4.55;;;14.30;89.70;;;;;;5013357;28;20222;-82
2021/08/23 02:53:38;;;;;;;6.80;4.20;;;14.40;89.50;;;;;;5007731;28;20399;-82
2021/08/23 02:56:04;;;;;;;7.47;4.60;;;14.40;89.60;;;;;;5005398;28;20399;-84
2021/08/23 02:58:30;;;;;;;8.13;4.85;;;14.40;89.50;;;;;;5013169;28;20022;-81
2021/08/23 03:00:56;;;;;;;8.48;4.97;;;14.40;89.40;;;;;;5013394;28;20018;-83
2021/08/23 03:03:22;;;;;;;10.80;4.82;;;14.50;89.40;;;;;;5012973;28;20026;-82
2021/08/23 03:05:48;;;;;;;9.63;5.65;;;14.50;89.40;;;;;;5013169;28;20095;-83
2021/08/23 03:08:13;;;;;;;9.95;6.43;;;14.60;89.20;;;;;;5013001;28;20026;-83
2021/08/23 03:10:39;;;;;;;7.43;5.05;;;14.60;89.50;;;;;;5013108;28;20035;-83
2021/08/23 03:13:08;;;;;;;7.75;5.15;;;14.70;88.70;;;;;;5013279;28;20030;-83
2021/08/23 03:15:34;;;;;;;9.57;5.03;;;14.80;88.30;;;;;;5012890;28;20046;-82
2021/08/23 03:17:59;;;;;;;8.45;5.45;;;14.80;87.70;;;;;;5011614;28;20069;-83
2021/08/23 03:20:25;;;;;;;11.40;4.93;;;14.80;87.50;;;;;;5012901;28;20029;-82
2021/08/23 03:22:51;;;;;;;9.93;4.65;;;14.90;87.30;;;;;;5012804;28;20115;-82
2021/08/23 03:25:17;;;;;;;12.63;4.55;;;14.90;86.90;;;;;;5012915;28;20502;-82
2021/08/23 03:27:43;;;;;;;7.60;5.00;;;15.00;86.60;;;;;;5012917;28;20076;-83
2021/08/23 03:30:09;;;;;;;6.25;4.85;;;15.10;86.20;;;;;;5012770;28;20041;-84
2021/08/23 03:32:35;;;;;;;12.90;4.93;;;15.20;85.80;;;;;;5012724;28;20022;-83
2021/08/23 03:35:01;;;;;;;4.95;3.58;;;15.20;85.20;;;;;;5012558;28;20084;-82
2021/08/23 03:37:28;;;;;;;11.18;4.20;;;15.20;84.90;;;;;;5013231;28;20475;-83
2021/08/23 03:39:57;;;;;;;6.28;4.15;;;15.30;84.80;;;;;;5011663;28;20360;-83
2021/08/23 03:42:27;;;;;;;7.93;4.07;;;15.30;84.60;;;;;;5012913;28;20052;-86
2021/08/23 03:44:52;;;;;;;6.47;3.75;;;15.40;84.40;;;;;;5012222;28;20113;-83
2021/08/23 03:47:18;;;;;;;6.13;3.85;;;15.40;84.20;;;;;;5013511;28;20113;-83
2021/08/23 03:49:45;;;;;;;6.13;4.28;;;15.50;83.90;;;;;;5014224;28;20029;-81
2021/08/23 03:52:10;;;;;;;9.30;4.70;;;15.60;83.90;;;;;;5013169;28;20022;-84
2021/08/23 03:54:36;;;;;;;9.38;4.70;;;15.70;83.40;;;;;;5012672;28;20025;-84
2021/08/23 03:57:02;;;;;;;7.32;4.47;;;15.70;82.90;;;;;;5013264;28;20038;-84
2021/08/23 03:59:28;;;;;;;14.50;11.27;;;15.90;82.40;;;;;;5020089;28;20061;-85
2021/08/23 04:01:54;;;;;;;4.93;3.70;;;15.90;82.10;;;;;;5016681;28;20056;-83
2021/08/23 04:04:19;;;;;;;7.55;3.20;;;16.00;81.50;;;;;;5012655;28;20026;-83
2021/08/23 04:06:46;;;;;;;10.85;4.10;;;16.10;81.10;;;;;;5012791;28;20026;-83
2021/08/23 04:09:14;;;;;;;6.93;3.47;;;16.10;80.30;;;;;;5012407;28;20411;-81
2021/08/23 04:11:41;;;;;;;7.05;3.47;;;16.20;80.30;;;;;;5012419;28;20136;-82
2021/08/23 04:14:07;;;;;;;9.45;4.38;;;16.30;79.90;;;;;;5012425;28;20071;-81
2021/08/23 04:16:32;;;;;;;8.25;4.80;;;16.30;79.20;;;;;;5010951;28;20534;-81
2021/08/23 04:18:58;;;;;;;6.95;3.88;;;16.40;79.20;;;;;;5012546;28;20137;-82
2021/08/23 04:21:24;;;;;;;9.32;3.72;;;16.40;79.00;;;;;;5015297;28;20475;-83
2021/08/23 04:23:50;;;;;;;6.07;3.78;;;16.50;78.60;;;;;;5010954;28;20030;-81
2021/08/23 04:26:16;;;;;;;7.32;3.40;;;16.50;78.30;;;;;;5012516;28;20088;-82
2021/08/23 04:28:41;;;;;;;7.35;3.78;;;16.60;78.30;;;;;;5012437;28;20022;-82
2021/08/23 04:31:07;;;;;;;8.18;3.67;;;16.70;78.10;;;;;;5012533;28;20386;-83
2021/08/23 04:33:33;;;;;;;4.60;2.97;;;16.70;77.70;;;;;;5000001;28;20089;-83
2021/08/23 04:35:59;;;;;;;7.80;4.10;;;16.70;77.60;;;;;;5010560;28;20041;-82
2021/08/23 04:38:25;;;;;;;6.68;3.17;;;16.80;77.80;;;;;;5012503;28;20026;-83
2021/08/23 04:40:51;;;;;;;10.02;3.30;;;17.30;76.70;;;;;;5012148;28;20064;-82
2021/08/23 04:43:17;;;;;;;6.85;3.80;;;17.90;74.20;;;;;;5012060;28;20022;-82
2021/08/23 04:45:42;;;;;;;7.50;3.67;;;18.70;71.60;;;;;;5012318;28;20103;-84
2021/08/23 04:48:08;;;;;;;5.70;3.00;;;19.50;68.60;;;;;;5011920;28;20033;-82
2021/08/23 04:50:34;;;;;;;6.05;3.08;;;20.20;65.80;;;;;;5013189;28;20049;-83
2021/08/23 04:53:00;;;;;;;7.28;2.92;;;20.70;64.20;;;;;;5015298;28;20108;-83
2021/08/23 04:55:26;;;;;;;9.68;3.75;;;21.40;61.30;;;;;;5015676;28;20065;-84
2021/08/23 04:57:53;;;;;;;7.55;2.80;;;;;;;;;;5015821;28;20037;-84
2021/08/23 05:00:19;;;;;;;5.45;3.35;;;22.10;57.90;;;;;;5015770;28;20025;-85
2021/08/23 05:02:45;;;;;;;6.97;3.83;;;22.60;57.20;;;;;;5015476;28;20125;-83
2021/08/23 05:05:11;;;;;;;9.68;3.17;;;23.20;55.80;;;;;;5015672;28;20026;-83
2021/08/23 05:07:37;;;;;;;6.60;3.50;;;23.20;54.80;;;;;;5013889;28;20129;-84
2021/08/23 05:10:04;;;;;;;9.80;3.47;;;23.60;54.30;;;;;;5015290;28;20036;-84
2021/08/23 05:12:29;;;;;;;16.33;3.78;;;24.40;52.80;;;;;;5015759;28;20018;-83
2021/08/23 05:14:55;;;;;;;10.23;3.50;;;25.00;51.00;;;;;;5015395;28;20499;-85
2021/08/23 05:17:21;;;;;;;12.07;3.15;;;25.60;50.00;;;;;;5013655;28;20041;-84
2021/08/23 05:19:47;;;;;;;5.70;3.15;;;26.20;49.30;;;;;;5015185;28;20076;-82
2021/08/23 05:22:13;;;;;;;8.27;2.70;;;26.70;48.00;;;;;;5014865;28;20048;-84
2021/08/23 05:24:38;;;;;;;5.82;3.17;;;27.00;46.50;;;;;;5007066;28;20058;-85
2021/08/23 05:27:04;;;;;;;8.98;3.13;;;27.30;45.50;;;;;;5012725;28;20479;-85
2021/08/23 05:29:30;;;;;;;12.57;3.53;;;27.10;45.10;;;;;;5015317;28;20022;-84
2021/08/23 05:31:56;;;;;;;7.75;3.45;;;27.10;45.40;;;;;;5015008;28;20037;-85
2021/08/23 05:34:21;;;;;;;7.25;4.47;;;27.30;44.90;;;;;;5014594;28;20448;-84
2021/08/23 05:36:47;;;;;;;7.47;3.13;;;27.40;44.90;;;;;;5010931;28;20041;-84
2021/08/23 05:39:13;;;;;;;10.52;3.75;;;28.10;44.10;;;;;;5013927;28;20041;-84
2021/08/23 05:41:39;;;;;;;6.82;3.00;;;28.70;43.30;;;;;;5015624;28;20052;-84
2021/08/23 05:44:05;;;;;;;6.25;2.50;;;29.10;43.60;;;;;;5014336;28;20058;-84
2021/08/23 05:46:30;;;;;;;4.60;2.20;;;29.90;41.30;;;;;;5014864;28;20108;-83
2021/08/23 05:48:56;;;;;;;5.03;3.00;;;30.50;40.40;;;;;;5015125;28;20459;-83
2021/08/23 05:51:22;;;;;;;5.55;2.63;;;31.20;39.40;;;;;;5011928;28;20031;-87
2021/08/23 05:53:48;;;;;;;6.35;2.92;;;31.60;39.10;;;;;;5026788;28;20044;-83
2021/08/23 05:56:13;;;;;;;5.03;3.03;;;31.70;38.90;;;;;;5025128;28;20057;-86
2021/08/23 05:58:40;;;;;;;5.88;2.30;;;;;;;;;;5026326;28;20105;-85
2021/08/23 06:01:06;;;;;;;4.30;2.57;;;;;;;;;;5025990;28;20026;-84
2021/08/23 06:03:32;;;;;;;6.60;2.05;;;32.00;37.80;;;;;;5026648;28;20025;-83
2021/08/23 06:06:03;;;;;;;5.38;2.38;;;;;;;;;;5015073;28;20014;-85
2021/08/23 06:08:29;;;;;;;11.38;3.17;;;;;;;;;;5015228;28;20052;-86
2021/08/23 06:10:55;;;;;;;4.60;1.45;;;32.90;34.60;;;;;;5014932;28;20467;-83
2021/08/23 06:13:21;;;;;;;6.77;1.80;;;34.00;34.00;;;;;;5016127;28;20034;-86
2021/08/23 06:15:47;;;;;;;4.80;1.77;;;34.20;33.60;;;;;;5014595;28;20392;-86
2021/08/23 06:18:13;;;;;;;7.60;2.33;;;34.50;33.30;;;;;;5013125;28;20045;-84
2021/08/23 06:20:39;;;;;;;4.60;1.65;;;35.00;33.40;;;;;;5014809;28;20018;-85
2021/08/23 06:23:05;;;;;;;4.93;1.33;;;35.30;32.30;;;;;;5014533;28;20088;-86
2021/08/23 06:25:31;;;;;;;6.03;2.00;;;35.40;32.10;;;;;;5013197;28;20025;-84
2021/08/23 06:27:57;;;;;;;3.63;2.03;;;;;;;;;;5014465;28;20260;-87
2021/08/23 06:30:23;;;;;;;4.97;1.90;;;35.90;32.30;;;;;;5014418;28;20022;-85
2021/08/23 06:32:48;;;;;;;5.57;1.73;;;35.90;30.80;;;;;;5014686;28;20545;-83
2021/08/23 06:35:14;;;;;;;4.90;2.10;;;35.80;30.70;;;;;;5012446;28;20487;-85
2021/08/23 06:37:41;;;;;;;5.27;1.90;;;35.60;31.10;;;;;;5014099;28;20030;-83
2021/08/23 06:40:08;;;;;;;9.52;2.20;;;35.60;31.30;;;;;;5014268;28;20022;-84
2021/08/23 06:42:36;;;;;;;6.20;2.20;;;35.60;31.00;;;;;;5014309;28;20026;-85
2021/08/23 06:45:04;;;;;;;6.88;2.00;;;35.10;31.30;;;;;;5013840;28;20028;-85
2021/08/23 06:47:29;;;;;;;4.20;1.60;;;35.00;31.30;;;;;;5017001;28;20379;-85
2021/08/23 06:49:55;;;;;;;3.97;1.50;;;35.10;30.30;;;;;;5020842;28;20022;-86
2021/08/23 06:52:21;;;;;;;4.23;1.77;;;35.00;30.70;;;;;;5026578;28;20038;-86
2021/08/23 06:54:47;;;;;;;7.40;2.50;;;35.10;30.50;;;;;;5016157;28;20078;-85
2021/08/23 06:57:12;;;;;;;3.93;1.93;;;33.90;31.40;;;;;;5013843;28;20037;-85
2021/08/23 06:59:38;;;;;;;3.30;1.57;;;33.60;30.90;;;;;;5013732;28;20105;-84
2021/08/23 07:02:04;;;;;;;5.50;2.10;;;33.10;31.70;;;;;;5013326;28;20097;-84
2021/08/23 07:04:30;;;;;;;6.30;2.13;;;33.00;32.00;;;;;;5012094;28;20022;-84
2021/08/23 07:06:56;;;;;;;2.70;1.60;;;32.00;31.90;;;;;;5013493;28;20033;-86
2021/08/23 07:09:21;;;;;;;5.60;2.17;;;31.10;32.50;;;;;;5013280;28;20038;-85
2021/08/23 07:11:47;;;;;;;4.28;2.10;;;30.00;33.80;;;;;;5013314;28;20022;-85
2021/08/23 07:14:13;;;;;;;2.30;1.63;;;29.80;34.90;;;;;;5012743;28;20021;-86
2021/08/23 07:16:39;;;;;;;4.68;1.85;;;30.40;34.90;;;;;;5013658;28;20030;-86
2021/08/23 07:19:05;;;;;;;5.07;2.40;;;30.50;34.70;;;;;;5029132;28;20038;-85
2021/08/23 07:21:31;;;;;;;5.03;1.92;;;29.60;35.20;;;;;;5013400;28;20834;-85
2021/08/23 07:23:57;;;;;;;3.75;1.67;;;28.70;36.30;;;;;;5014311;28;20030;-85
2021/08/23 07:26:22;;;;;;;8.32;1.73;;;27.80;37.40;;;;;;5018408;28;20036;-85
2021/08/23 07:28:48;;;;;;;3.80;1.70;;;26.90;38.00;;;;;;5014617;28;20034;-86
2021/08/23 07:31:15;;;;;;;2.42;1.42;;;25.80;39.40;;;;;;5012103;28;20379;-85
2021/08/23 07:33:41;;;;;;;10.30;1.75;;;24.40;41.10;;;;;;5013468;28;20096;-84
2021/08/23 07:36:07;;;;;;;3.05;1.40;;;23.20;43.60;;;;;;5012489;28;20021;-83
2021/08/23 07:38:33;;;;;;;5.40;1.70;;;23.10;45.30;;;;;;5013268;28;20033;-88
2021/08/23 07:41:01;;;;;;;2.55;1.52;;;24.40;44.10;;;;;;4999553;28;20073;-84
2021/08/23 07:43:26;;;;;;;2.47;1.45;;;26.20;40.90;;;;;;4999685;28;20352;-86
2021/08/23 07:45:53;;;;;;;1.90;1.20;;;27.00;39.90;;;;;;5013200;28;20026;-86
2021/08/23 07:48:18;;;;;;;2.33;1.50;;;28.00;39.00;;;;;;5012351;28;20166;-87
2021/08/23 07:50:44;;;;;;;4.70;1.63;;;27.90;37.70;;;;;;5013111;28;20026;-84
2021/08/23 07:53:10;;;;;;;4.78;2.45;;;27.10;38.00;;;;;;5013276;28;20030;-85
2021/08/23 07:55:36;;;;;;;4.50;2.00;;;26.30;39.60;;;;;;5013489;28;20026;-84
2021/08/23 07:58:02;;;;;;;6.07;2.10;;;25.30;40.50;;;;;;5002772;28;20042;-87
2021/08/23 08:00:29;;;;;;;3.80;1.90;;;25.00;41.80;;;;;;5006447;28;20025;-85
2021/08/23 08:02:54;;;;;;;3.80;1.83;;;24.70;42.10;;;;;;5013840;28;20045;-85
2021/08/23 08:05:20;;;;;;;2.97;2.15;;;24.80;42.10;;;;;;5013662;28;20406;-86
2021/08/23 08:07:46;;;;;;;4.45;1.63;;;25.20;41.50;;;;;;5013461;28;20395;-86
2021/08/23 08:10:13;;;;;;;3.97;1.73;;;24.90;41.80;;;;;;5013883;28;20057;-85
2021/08/23 08:12:40;;;;;;;2.85;1.30;;;24.30;41.80;;;;;;5012209;28;20026;-86
2021/08/23 08:15:07;;;;;;;1.90;1.40;;;24.00;43.00;;;;;;5012952;28;20018;-85
2021/08/23 08:17:33;;;;;;;5.53;2.08;;;23.70;43.00;;;;;;5012922;28;20034;-86
2021/08/23 08:19:59;;;;;;;2.53;1.67;;;23.60;44.40;;;;;;5012952;28;20033;-84
2021/08/23 08:22:25;;;;;;;2.28;1.20;;;25.20;42.70;;;;;;5013405;28;20042;-85
2021/08/23 08:24:51;;;;;;;1.55;1.38;;;27.70;38.90;;;;;;5015743;28;20033;-85
2021/08/23 08:27:17;;;;;;;4.53;2.17;;;29.10;35.70;;;;;;5016469;28;20030;-86
2021/08/23 08:29:43;;;;;;;3.08;1.58;;;29.30;35.30;;;;;;5015348;28;20310;-84
2021/08/23 08:32:09;;;;;;;3.25;1.73;;;30.40;34.90;;;;;;5016276;28;20053;-85
2021/08/23 08:34:35;;;;;;;5.77;2.10;;;30.90;33.80;;;;;;5016336;28;20097;-86
2021/08/23 08:37:02;;;;;;;7.10;2.20;;;30.20;33.90;;;;;;5016739;28;20036;-85
2021/08/23 08:39:28;;;;;;;13.55;3.15;;;;;;;;;;5016719;28;20062;-87
2021/08/23 08:41:54;;;;;;;4.90;1.42;;;30.40;35.00;;;;;;5016904;28;20133;-87
2021/08/23 08:44:20;;;;;;;15.57;3.53;;;34.50;30.90;;;;;;5016860;28;20114;-87
2021/08/23 08:46:48;;;;;;;5.80;1.90;;;34.50;31.30;;;;;;5016570;28;20467;-87
2021/08/23 08:49:13;;;;;;;9.73;2.28;;;35.30;29.60;;;;;;5016979;28;20281;-86
2021/08/23 08:51:41;;;;;;;2.20;1.47;;;34.30;29.40;;;;;;5016623;28;20387;-87
2021/08/23 08:54:07;;;;;;;4.07;1.77;;;33.30;30.20;;;;;;5016305;28;20387;-86
2021/08/23 08:56:34;;;;;;;4.47;1.95;;;33.70;30.30;;;;;;5015965;28;20120;-87
2021/08/23 08:59:01;;;;;;;3.45;1.77;;;34.40;29.80;;;;;;5022056;28;20010;-85
2021/08/23 09:01:30;;;;;;;1.55;1.30;;;34.20;29.90;;;;;;5023466;28;20082;-87
2021/08/23 09:04:01;;;;;;;4.13;1.58;;;34.80;29.40;;;;;;5015203;28;20022;-87
2021/08/23 09:06:39;;;;;;;3.72;1.73;;;35.40;29.20;;;;;;5014531;28;20397;-86
2021/08/23 09:09:13;;;;;;;4.28;1.13;;;36.00;29.20;;;;;;5015741;28;20022;-88
2021/08/23 09:11:41;;;;;;;2.17;1.17;;;36.10;28.30;;;;;;5016060;28;20415;-86
2021/08/23 09:14:08;;;;;;;6.88;2.08;;;36.00;28.20;;;;;;5017537;28;20033;-86
2021/08/23 09:16:38;;;;;;;2.55;1.38;;;36.40;28.20;;;;;;5017089;28;20026;-88
2021/08/23 09:19:06;;;;;;;8.02;3.75;;;36.80;27.70;;;;;;5016821;28;20053;-86
2021/08/23 09:21:41;;;;;;;4.35;1.77;;;36.00;27.90;;;;;;5016806;28;20022;-87
2021/08/23 09:24:34;;;;;;;2.90;1.27;;;33.10;29.10;;;;;;5000826;28;20025;-88
2021/08/23 09:27:08;;;;;;;1.83;1.20;;;32.30;29.90;;;;;;5008666;28;20026;-87
2021/08/23 09:29:56;;;;;;;6.32;3.00;;;30.70;31.50;;;;;;5018215;28;20434;-87
2021/08/23 09:32:31;;;;;;;3.72;3.15;;;29.50;34.00;;;;;;5013000;28;20057;-86
2021/08/23 09:34:57;;;;;;;2.28;1.48;;;30.00;34.20;;;;;;5013706;28;20073;-86
2021/08/23 09:37:26;;;;;;;5.90;1.33;;;31.40;32.60;;;;;;5014943;28;20451;-88
2021/08/23 09:39:53;;;;;;;2.13;1.08;;;32.90;31.20;;;;;;5016377;28;20106;-85
2021/08/23 09:42:22;;;;;;;3.50;1.00;;;33.10;30.00;;;;;;5017155;28;20072;-87
2021/08/23 09:44:49;;;;;;;4.75;1.95;;;32.60;30.00;;;;;;5019030;28;20105;-86
2021/08/23 09:47:16;;;;;;;2.95;1.10;;;33.20;30.40;;;;;;5017065;28;20025;-88
2021/08/23 09:49:46;;;;;;;1.52;0.85;;;34.90;29.10;;;;;;5016697;28;20375;-88
2021/08/23 09:52:27;;;;;;;1.92;0.95;;;35.60;28.10;;;;;;5005237;28;20105;-89
2021/08/23 09:55:09;;;;;;;2.55;1.33;;;34.80;28.40;;;;;;5017640;28;20034;-87
2021/08/23 09:57:37;;;;;;;10.70;2.17;;;35.00;28.60;;;;;;5017117;28;20455;-86
2021/08/23 10:00:07;;;;;;;3.67;1.60;;;36.70;28.20;;;;;;5019739;28;20478;-87
2021/08/23 10:02:34;;;;;;;3.60;1.10;;;37.00;27.70;;;;;;5019538;28;20090;-89
2021/08/23 10:05:01;;;;;;;1.17;0.80;;;37.50;27.00;;;;;;5019943;28;20025;-84
2021/08/23 10:07:29;;;;;;;2.08;1.15;;;38.00;26.80;;;;;;5019425;28;20450;-87
2021/08/23 10:10:01;;;;;;;2.20;1.30;;;37.70;27.00;;;;;;5022271;28;20379;-88
2021/08/23 10:12:29;;;;;;;2.72;1.13;;;36.90;27.10;;;;;;5003100;28;20029;-85
2021/08/23 10:14:55;;;;;;;26.30;11.18;;;35.60;28.00;;;;;;5002827;28;20033;-85
2021/08/23 10:17:21;;;;;;;3.53;1.08;;;35.40;28.50;;;;;;5013731;28;20112;-88
2021/08/23 10:19:49;;;;;;;3.40;1.45;;;36.00;28.20;;;;;;5015661;28;20530;-87
2021/08/23 10:22:15;;;;;;;2.63;1.30;;;35.00;28.40;;;;;;5014982;28;20025;-87
2021/08/23 10:24:42;;;;;;;3.83;1.27;;;33.00;29.60;;;;;;5014454;28;20037;-85
2021/08/23 10:27:08;;;;;;;2.58;1.50;;;31.10;31.30;;;;;;5014532;28;20022;-86
2021/08/23 10:29:39;;;;;;;3.15;1.17;;;29.50;32.70;;;;;;5017891;28;20029;-86
2021/08/23 10:32:11;;;;;;;3.72;1.25;;;28.10;34.40;;;;;;5017048;28;20379;-88
2021/08/23 10:34:38;;;;;;;3.17;1.52;;;27.10;36.10;;;;;;5015496;28;20390;-87
2021/08/23 10:37:16;;;;;;;3.75;1.85;;;26.30;37.70;;;;;;5013856;28;20092;-87
2021/08/23 10:39:41;;;;;;;3.50;1.98;;;25.70;38.90;;;;;;5014218;28;20089;-85
2021/08/23 10:42:12;;;;;;;2.85;1.60;;;25.30;39.00;;;;;;5012425;28;20042;-85
2021/08/23 10:44:38;;;;;;;3.58;1.70;;;25.10;39.50;;;;;;5014221;28;20054;-88
2021/08/23 10:47:14;;;;;;;2.65;1.58;;;24.70;40.20;;;;;;5013468;28;20395;-86
2021/08/23 10:49:46;;;;;;;3.22;1.88;;;24.30;40.80;;;;;;5012721;28;20032;-85
2021/08/23 10:52:14;;;;;;;5.05;1.50;;;24.00;41.80;;;;;;5014272;28;20048;-84
2021/08/23 10:54:46;;;;;;;2.92;1.65;;;23.90;42.70;;;;;;5012292;28;20030;-85
2021/08/23 10:57:14;;;;;;;3.08;1.48;;;23.70;43.00;;;;;;5014297;28;20033;-86
2021/08/23 10:59:47;;;;;;;2.97;1.58;;;23.70;43.10;;;;;;5013729;28;20069;-86
2021/08/23 11:02:32;;;;;;;3.72;1.75;;;23.60;43.40;;;;;;5000778;28;20160;-85
2021/08/23 11:05:13;;;;;;;2.78;1.40;;;23.60;43.80;;;;;;5014151;28;20427;-86
2021/08/23 11:07:41;;;;;;;2.00;1.20;;;23.60;43.60;;;;;;5013694;28;20022;-86
2021/08/23 11:10:07;;;;;;;4.57;2.33;;;23.40;43.80;;;;;;5013311;28;20113;-86
2021/08/23 11:12:48;;;;;;;2.75;2.00;;;23.40;44.80;;;;;;5013402;28;20096;-87
2021/08/23 11:15:31;;;;;;;5.25;2.42;;;23.60;44.90;;;;;;5011751;28;20125;-85
2021/08/23 11:18:02;;;;;;;6.90;2.03;;;23.40;44.30;;;;;;5013439;28;20036;-87
2021/08/23 11:20:37;;;;;;;5.10;2.63;;;23.40;44.50;;;;;;5015444;28;20021;-87
2021/08/23 11:23:09;;;;;;;3.38;1.45;;;23.30;44.30;;;;;;5003325;28;20026;-83
2021/08/23 11:25:36;;;;;;;2.20;1.50;;;23.30;44.10;;;;;;5009847;28;20025;-86
2021/08/23 11:28:07;;;;;;;2.22;1.48;;;23.20;44.40;;;;;;5013163;28;20431;-86
2021/08/23 11:30:39;;;;;;;3.38;1.48;;;23.10;44.80;;;;;;5012975;28;20391;-86
2021/08/23 11:33:06;;;;;;;3.78;1.60;;;23.20;44.60;;;;;;5012868;28;20033;-84
2021/08/23 11:35:32;;;;;;;3.30;1.30;;;23.20;44.50;;;;;;5013779;28;20060;-85
2021/08/23 11:38:01;;;;;;;4.90;2.30;;;23.30;44.30;;;;;;5013329;28;20464;-84
2021/08/23 11:40:28;;;;;;;2.58;1.20;;;23.70;43.90;;;;;;5013209;28;20471;-86
2021/08/23 11:42:55;;;;;;;;;;;23.80;41.60;;;;;;5020235;28;20048;-85
2021/08/23 11:45:31;;;;;;;2.50;1.10;;;23.90;41.90;;;;;;5020715;28;20004;-89
2021/08/23 11:47:57;;;;;;;3.42;1.40;;;23.70;41.20;;;;;;5013095;28;20112;-84
2021/08/23 11:50:23;;;;;;;4.57;1.08;;;23.70;40.90;;;;;;5015979;28;20026;-85
2021/08/23 11:52:50;;;;;;;3.25;1.50;;;23.50;41.90;;;;;;5017673;28;20022;-86
2021/08/23 11:55:36;;;;;;;2.27;1.40;;;23.50;41.70;;;;;;5014381;28;20026;-85
2021/08/23 11:58:08;;;;;;;5.07;1.58;;;23.40;42.00;;;;;;5016716;28;20283;-86
2021/08/23 12:00:35;;;;;;;1.35;1.00;;;23.30;43.00;;;;;;5017258;28;20022;-84
2021/08/23 12:03:14;;;;;;;3.45;1.35;;;23.10;42.90;;;;;;5003502;28;20125;-87
2021/08/23 12:05:45;;;;;;;3.47;2.35;;;23.00;43.80;;;;;;5012177;28;20514;-84
2021/08/23 12:08:30;;;;;;;2.40;1.33;;;23.00;44.30;;;;;;5023666;28;20387;-87
2021/08/23 12:10:57;;;;;;;1.92;1.40;;;23.00;43.80;;;;;;5004354;28;20033;-85
2021/08/23 12:13:34;;;;;;;3.28;1.63;;;23.10;44.60;;;;;;5011349;28;20022;-85
2021/08/23 12:16:12;;;;;;;5.15;2.35;;;23.20;44.80;;;;;;5008326;28;20034;-84
2021/08/23 12:18:40;;;;;;;5.25;1.90;;;23.10;45.30;;;;;;5012001;28;20037;-85
2021/08/23 12:21:28;;;;;;;3.25;1.77;;;23.20;45.10;;;;;;5020534;28;20018;-85
2021/08/23 12:24:08;;;;;;;5.55;2.10;;;23.30;45.10;;;;;;5016031;28;20097;-84
2021/08/23 12:26:40;;;;;;;2.42;1.88;;;23.50;45.10;;;;;;5015998;28;20014;-85
2021/08/23 12:29:16;;;;;;;4.70;1.75;;;23.30;45.10;;;;;;5015257;28;20479;-87
2021/08/23 12:31:52;;;;;;;5.03;1.85;;;23.30;45.30;;;;;;5017758;28;20026;-86
2021/08/23 12:34:20;;;;;;;8.02;2.35;;;23.50;45.30;;;;;;5021526;28;20022;-85
2021/08/23 12:36:46;;;;;;;3.15;1.80;;;23.60;45.00;;;;;;5026235;28;20060;-87
2021/08/23 12:39:12;;;;;;;4.20;1.55;;;23.60;44.70;;;;;;5017603;28;20153;-86
2021/08/23 12:41:40;;;;;;;4.80;1.92;;;23.30;44.90;;;;;;5001821;28;20038;-85
2021/08/23 12:44:06;;;;;;;6.70;2.33;;;23.20;44.80;;;;;;5015879;28;20021;-86
2021/08/23 12:46:33;;;;;;;;;;;23.00;45.40;;;;;;5016603;28;20064;-85
2021/08/23 12:48:59;;;;;;;4.10;1.55;;;22.80;45.00;;;;;;5014726;28;19909;-85
2021/08/23 12:51:25;;;;;;;3.08;1.17;;;22.60;44.70;;;;;;5015280;28;20030;-88